createdAt,value
2023-01-21T00:01:11.338Z,37.90
2023-01-21T00:03:38.683Z,31.65
2023-01-21T00:06:07.044Z,27.38
2023-01-21T00:08:34.177Z,30.30
2023-01-21T00:11:14.792Z,29.13
2023-01-21T00:13:43.665Z,30.08
2023-01-21T00:16:13.084Z,25.77
2023-01-21T00:18:40.722Z,27.38
2023-01-21T00:21:07.747Z,24.17
2023-01-21T00:23:34.652Z,28.42
2023-01-21T00:26:04.571Z,31.48
2023-01-21T00:28:34.394Z,41.55
2023-01-21T00:31:05.534Z,39.10
2023-01-21T00:33:33.720Z,38.33
2023-01-21T00:36:08.838Z,32.83
2023-01-21T00:38:36.669Z,39.40
2023-01-21T00:41:10.079Z,33.58
2023-01-21T00:43:37.924Z,36.50
2023-01-21T00:46:05.721Z,36.10
2023-01-21T00:48:33.499Z,31.90
2023-01-21T00:51:01.177Z,32.50
2023-01-21T00:53:33.345Z,36.35
2023-01-21T00:56:06.947Z,30.65
2023-01-21T00:58:34.130Z,35.58
2023-01-21T01:01:05.338Z,39.83
2023-01-21T01:03:34.039Z,41.17
2023-01-21T01:06:14.277Z,37.30
2023-01-21T01:08:42.968Z,35.35
2023-01-21T01:11:11.675Z,41.67
2023-01-21T01:13:39.425Z,39.35
2023-01-21T01:16:07.151Z,44.70
2023-01-21T01:18:36.879Z,43.35
2023-01-21T01:21:05.572Z,40.10
2023-01-21T01:23:32.997Z,44.65
2023-01-21T01:26:04.631Z,44.42
2023-01-21T01:28:33.543Z,42.33
2023-01-21T01:31:01.692Z,36.45
2023-01-21T01:33:28.746Z,45.50
2023-01-21T01:35:55.613Z,42.60
2023-01-21T01:38:23.827Z,39.05
2023-01-21T01:40:53.143Z,43.70
2023-01-21T01:43:25.130Z,43.38
2023-01-21T01:45:53.242Z,35.55
2023-01-21T01:48:31.542Z,46.10
2023-01-21T01:51:03.522Z,52.47
2023-01-21T01:53:32.340Z,45.58
2023-01-21T01:56:00.533Z,46.38
2023-01-21T01:58:30.662Z,56.08
2023-01-21T02:00:59.490Z,51.50
2023-01-21T02:03:46.822Z,45.45
2023-01-21T02:06:16.109Z,44.55
2023-01-21T02:08:47.958Z,46.67
2023-01-21T02:11:18.354Z,45.20
2023-01-21T02:13:52.874Z,42.95
2023-01-21T02:16:58.072Z,40.00
2023-01-21T02:20:51.655Z,43.40
2023-01-21T02:23:29.167Z,40.00
2023-01-21T02:26:22.728Z,37.25
2023-01-21T02:29:23.662Z,40.88
2023-01-21T02:32:39.655Z,39.65
2023-01-21T02:35:31.557Z,38.33
2023-01-21T02:38:13.317Z,35.70
2023-01-21T02:40:49.419Z,40.70
2023-01-21T02:43:37.080Z,40.20
2023-01-21T02:46:17.017Z,37.95
2023-01-21T02:49:04.249Z,34.58
2023-01-21T02:51:31.152Z,36.15
2023-01-21T02:53:58.015Z,34.83
2023-01-21T02:56:27.714Z,36.97
2023-01-21T02:59:01.026Z,33.92
2023-01-21T03:02:07.444Z,35.83
2023-01-21T03:04:43.243Z,32.00
2023-01-21T03:07:27.487Z,29.58
2023-01-21T03:10:21.493Z,28.27
2023-01-21T03:13:04.107Z,33.03
2023-01-21T03:16:11.577Z,29.15
2023-01-21T03:18:49.383Z,27.30
2023-01-21T03:21:25.104Z,28.75
2023-01-21T03:23:55.687Z,28.63
2023-01-21T03:26:45.806Z,28.98
2023-01-21T03:29:23.226Z,32.85
2023-01-21T03:31:57.940Z,33.33
2023-01-21T03:34:29.456Z,31.42
2023-01-21T03:37:15.118Z,26.10
2023-01-21T03:39:55.567Z,24.80
2023-01-21T03:42:22.814Z,30.67
2023-01-21T03:44:50.031Z,32.42
2023-01-21T03:47:28.702Z,32.70
2023-01-21T03:50:21.421Z,26.98
2023-01-21T03:52:48.348Z,32.55
2023-01-21T03:55:17.642Z,29.45
2023-01-21T03:57:44.923Z,28.27
2023-01-21T04:00:13.504Z,27.05
2023-01-21T04:02:40.433Z,24.00
2023-01-21T04:05:07.870Z,30.45
2023-01-21T04:07:34.873Z,29.50
2023-01-21T04:10:02.172Z,29.25
2023-01-21T04:12:29.076Z,33.00
2023-01-21T04:14:56.053Z,27.13
2023-01-21T04:17:22.927Z,31.30
2023-01-21T04:19:49.778Z,30.70
2023-01-21T04:22:16.840Z,30.10
2023-01-21T04:24:43.688Z,32.17
2023-01-21T04:27:10.556Z,35.70
2023-01-21T04:29:37.528Z,33.50
2023-01-21T04:32:04.695Z,35.05
2023-01-21T04:34:31.604Z,35.65
2023-01-21T04:36:58.502Z,32.75
2023-01-21T04:39:25.443Z,32.83
2023-01-21T04:41:52.369Z,32.47
2023-01-21T04:44:19.299Z,35.97
2023-01-21T04:46:46.203Z,30.38
2023-01-21T04:49:13.118Z,30.30
2023-01-21T04:51:39.967Z,30.83
2023-01-21T04:54:06.887Z,29.63
2023-01-21T04:56:33.802Z,29.23
2023-01-21T04:59:00.659Z,27.10
2023-01-21T05:01:27.924Z,26.88
2023-01-21T05:03:54.867Z,29.40
2023-01-21T05:06:21.717Z,29.80
2023-01-21T05:08:48.688Z,26.35
2023-01-21T05:11:18.549Z,26.48
2023-01-21T05:13:45.823Z,26.58
2023-01-21T05:16:14.310Z,27.35
2023-01-21T05:18:41.735Z,26.95
2023-01-21T05:21:09.087Z,28.85
2023-01-21T05:23:35.948Z,25.25
2023-01-21T05:26:03.476Z,23.20
2023-01-21T05:28:30.453Z,27.30
2023-01-21T05:31:04.329Z,28.10
2023-01-21T05:33:35.720Z,29.83
2023-01-21T05:36:04.753Z,28.73
2023-01-21T05:38:31.914Z,38.50
2023-01-21T05:41:00.721Z,35.03
2023-01-21T05:43:28.597Z,35.60
2023-01-21T05:45:56.594Z,40.05
2023-01-21T05:48:23.814Z,37.13
2023-01-21T05:50:50.950Z,43.22
2023-01-21T05:53:18.270Z,36.67
2023-01-21T05:55:45.261Z,45.25
2023-01-21T05:58:12.160Z,43.13
2023-01-21T06:00:39.084Z,42.70
2023-01-21T06:03:05.994Z,45.72
2023-01-21T06:05:32.938Z,47.22
2023-01-21T06:07:59.787Z,43.33
2023-01-21T06:10:27.136Z,43.92
2023-01-21T06:12:54.222Z,49.88
2023-01-21T06:15:21.207Z,44.90
2023-01-21T06:17:48.093Z,45.97
2023-01-21T06:20:15.615Z,53.53
2023-01-21T06:22:42.842Z,56.50
2023-01-21T06:25:10.377Z,48.95
2023-01-21T06:27:38.310Z,57.65
2023-01-21T06:30:09.091Z,44.40
2023-01-21T06:32:36.640Z,43.28
2023-01-21T06:35:04.352Z,44.65
2023-01-21T06:37:31.203Z,36.67
2023-01-21T06:39:58.128Z,36.17
2023-01-21T06:42:25.109Z,36.75
2023-01-21T06:44:52.054Z,35.15
2023-01-21T06:47:18.889Z,37.15
2023-01-21T06:49:45.824Z,35.88
2023-01-21T06:52:12.687Z,34.15
2023-01-21T06:54:39.610Z,37.15
2023-01-21T06:57:06.553Z,33.22
2023-01-21T06:59:33.473Z,27.20
2023-01-21T07:02:00.395Z,30.70
2023-01-21T07:04:28.261Z,35.35
2023-01-21T07:06:55.167Z,32.20
2023-01-21T07:09:22.290Z,34.72
2023-01-21T07:11:49.829Z,26.85
2023-01-21T07:14:16.854Z,27.70
2023-01-21T07:16:43.825Z,31.63
2023-01-21T07:19:12.077Z,33.42
2023-01-21T07:21:41.281Z,33.22
2023-01-21T07:24:09.195Z,29.58
2023-01-21T07:26:38.177Z,26.40
2023-01-21T07:29:07.668Z,31.13
2023-01-21T07:31:35.300Z,32.10
2023-01-21T07:34:02.959Z,34.13
2023-01-21T07:36:30.080Z,25.60
2023-01-21T07:38:57.310Z,32.00
2023-01-21T07:41:24.850Z,28.77
2023-01-21T07:43:52.343Z,28.48
2023-01-21T07:46:21.830Z,27.02
2023-01-21T07:48:52.230Z,36.28
2023-01-21T07:51:21.014Z,31.73
2023-01-21T07:53:48.266Z,28.65
2023-01-21T07:56:16.218Z,26.27
2023-01-21T07:58:43.202Z,31.58
2023-01-21T08:01:10.639Z,26.27
2023-01-21T08:03:38.578Z,25.08
2023-01-21T08:06:06.503Z,28.23
2023-01-21T08:08:33.837Z,26.67
2023-01-21T08:11:00.937Z,28.42
2023-01-21T08:13:27.939Z,29.23
2023-01-21T08:15:57.152Z,29.75
2023-01-21T08:18:25.325Z,27.23
2023-01-21T08:20:58.123Z,28.20
2023-01-21T08:23:27.150Z,29.85
2023-01-21T08:25:54.568Z,25.88
2023-01-21T08:28:23.049Z,27.90
2023-01-21T08:30:50.038Z,32.90
2023-01-21T08:33:17.079Z,28.85
2023-01-21T08:35:44.057Z,24.25
2023-01-21T08:38:11.032Z,26.58
2023-01-21T08:40:37.938Z,28.65
2023-01-21T08:43:07.812Z,24.73
2023-01-21T08:45:34.756Z,25.08
2023-01-21T08:48:04.032Z,26.60
2023-01-21T08:50:30.981Z,26.08
2023-01-21T08:52:58.019Z,29.80
2023-01-21T08:55:26.749Z,34.13
2023-01-21T08:57:58.455Z,41.65
2023-01-21T09:00:25.694Z,27.42
2023-01-21T09:02:53.207Z,27.15
2023-01-21T09:05:20.654Z,28.95
2023-01-21T09:07:47.492Z,28.00
2023-01-21T09:10:34.704Z,32.22
2023-01-21T09:13:12.979Z,28.90
2023-01-21T09:15:44.119Z,29.58
2023-01-21T09:18:12.051Z,32.97
2023-01-21T09:20:39.791Z,31.00
2023-01-21T09:23:27.650Z,27.83
2023-01-21T09:26:05.762Z,31.58
2023-01-21T09:28:38.217Z,27.13
2023-01-21T09:31:12.248Z,25.80
2023-01-21T09:33:42.927Z,31.70
2023-01-21T09:36:16.125Z,28.42
2023-01-21T09:38:45.652Z,26.80
2023-01-21T09:41:37.368Z,27.60
2023-01-21T09:44:35.078Z,29.10
2023-01-21T09:47:29.563Z,25.38
2023-01-21T09:50:04.367Z,25.20
2023-01-21T09:52:44.433Z,26.15
2023-01-21T09:55:25.515Z,25.67
2023-01-21T09:58:16.750Z,22.38
2023-01-21T10:00:52.490Z,27.65
2023-01-21T10:03:42.630Z,25.83
2023-01-21T10:06:45.733Z,25.60
2023-01-21T10:09:32.811Z,24.00
2023-01-21T10:12:18.116Z,26.73
2023-01-21T10:15:06.922Z,25.67
2023-01-21T10:18:09.013Z,25.98
2023-01-21T10:20:53.027Z,27.42
2023-01-21T10:23:38.776Z,30.48
2023-01-21T10:26:10.216Z,29.02
2023-01-21T10:28:47.100Z,29.35
2023-01-21T10:31:39.583Z,26.65
2023-01-21T10:34:20.341Z,27.77
2023-01-21T10:37:05.843Z,25.63
2023-01-21T10:39:51.310Z,26.33
2023-01-21T10:42:54.026Z,26.42
2023-01-21T10:46:05.005Z,24.70
2023-01-21T10:48:50.706Z,25.13
2023-01-21T10:54:51.016Z,22.88
2023-01-21T10:58:11.472Z,21.58
2023-01-21T11:00:47.262Z,24.23
2023-01-21T11:03:34.823Z,21.90
2023-01-21T11:06:06.775Z,24.98
2023-01-21T11:08:34.690Z,26.65
2023-01-21T11:11:03.104Z,23.73
2023-01-21T11:13:30.101Z,30.83
2023-01-21T11:15:59.607Z,23.73
2023-01-21T11:18:42.098Z,21.85
2023-01-21T11:21:25.625Z,22.90
2023-01-21T11:23:59.580Z,24.42
2023-01-21T11:26:36.517Z,25.00
2023-01-21T11:29:15.557Z,20.95
2023-01-21T11:31:59.804Z,24.20
2023-01-21T11:34:27.680Z,24.20
2023-01-21T11:37:02.686Z,26.55
2023-01-21T11:39:34.756Z,23.83
2023-01-21T11:42:19.193Z,21.17
2023-01-21T11:45:30.561Z,24.83
2023-01-21T11:48:00.165Z,25.35
2023-01-21T11:50:37.651Z,29.20
2023-01-21T11:53:07.776Z,29.33
2023-01-21T11:55:46.639Z,25.63
2023-01-21T11:58:30.545Z,23.20
2023-01-21T12:01:05.608Z,26.30
2023-01-21T12:03:45.716Z,23.40
2023-01-21T12:06:25.275Z,28.33
2023-01-21T12:08:57.517Z,27.08
2023-01-21T12:11:29.538Z,23.63
2023-01-21T12:14:29.396Z,24.25
2023-01-21T12:17:05.696Z,24.33
2023-01-21T12:19:50.621Z,22.85
2023-01-21T12:22:35.732Z,22.85
2023-01-21T12:26:08.862Z,23.42
2023-01-21T12:29:20.493Z,24.25
2023-01-21T12:31:59.278Z,21.67
2023-01-21T12:34:38.658Z,25.73
2023-01-21T12:37:18.313Z,21.67
2023-01-21T12:39:49.830Z,21.90
2023-01-21T12:42:29.321Z,21.30
2023-01-21T12:45:12.949Z,21.80
2023-01-21T12:47:53.401Z,23.88
2023-01-21T12:50:36.229Z,22.30
2023-01-21T12:53:42.486Z,22.90
2023-01-21T12:56:49.967Z,23.30
2023-01-21T12:59:26.807Z,19.80
2023-01-21T13:02:15.365Z,22.38
2023-01-21T13:05:10.936Z,21.48
2023-01-21T13:07:50.881Z,24.67
2023-01-21T13:10:47.016Z,25.00
2023-01-21T13:15:54.354Z,19.67
2023-01-21T13:18:41.574Z,21.02
2023-01-21T13:21:31.697Z,21.25
2023-01-21T13:24:16.458Z,21.33
2023-01-21T13:27:09.396Z,26.03
2023-01-21T13:30:03.235Z,23.63
2023-01-21T13:32:42.059Z,23.00
2023-01-21T13:35:45.413Z,26.48
2023-01-21T13:38:53.240Z,24.70
2023-01-21T13:42:13.688Z,22.05
2023-01-21T13:45:05.483Z,23.77
2023-01-21T13:47:58.213Z,22.17
2023-01-21T13:51:03.351Z,28.15
2023-01-21T13:53:51.508Z,26.45
2023-01-21T13:56:48.722Z,25.98
2023-01-21T13:59:27.384Z,28.95
2023-01-21T14:02:06.044Z,27.33
2023-01-21T14:04:45.677Z,28.23
2023-01-21T14:07:28.378Z,31.85
2023-01-21T14:10:22.495Z,28.05
2023-01-21T14:13:39.357Z,24.15
2023-01-21T14:19:07.227Z,29.95
2023-01-21T14:22:05.359Z,30.92
2023-01-21T14:24:45.095Z,29.40
2023-01-21T14:27:37.490Z,27.55
2023-01-21T14:30:46.488Z,30.20
2023-01-21T14:33:35.363Z,26.42
2023-01-21T14:36:12.398Z,27.25
2023-01-21T14:39:47.515Z,30.92
2023-01-21T14:42:24.987Z,29.02
2023-01-21T14:44:51.844Z,26.27
2023-01-21T14:47:18.767Z,31.48
2023-01-21T14:49:50.411Z,25.20
2023-01-21T14:52:29.637Z,25.23
2023-01-21T14:54:57.255Z,24.08
2023-01-21T14:57:37.105Z,28.38
2023-01-21T15:00:21.246Z,25.10
2023-01-21T15:02:57.235Z,23.00
2023-01-21T15:05:35.803Z,22.70
2023-01-21T15:08:25.548Z,28.70
2023-01-21T15:11:20.600Z,25.85
2023-01-21T15:14:03.521Z,24.58
2023-01-21T15:16:38.562Z,20.85
2023-01-21T15:19:08.430Z,23.20
2023-01-21T15:21:37.185Z,23.05
2023-01-21T15:24:19.810Z,19.95
2023-01-21T15:27:17.847Z,21.98
2023-01-21T15:29:55.158Z,24.65
2023-01-21T15:32:49.489Z,24.80
2023-01-21T15:35:30.510Z,23.95
2023-01-21T15:38:12.976Z,27.63
2023-01-21T15:40:47.361Z,25.38
2023-01-21T15:43:35.238Z,23.43
2023-01-21T15:46:17.174Z,23.52
2023-01-21T15:49:21.423Z,22.83
2023-01-21T15:52:04.811Z,21.83
2023-01-21T15:55:02.970Z,23.13
2023-01-21T15:57:48.516Z,24.70
2023-01-21T16:00:20.965Z,21.35
2023-01-21T16:03:35.226Z,22.10
2023-01-21T16:06:59.308Z,19.77
2023-01-21T16:09:48.858Z,23.20
2023-01-21T16:12:43.791Z,20.67
2023-01-21T16:15:48.625Z,19.05
2023-01-21T16:18:34.617Z,18.00
2023-01-21T16:23:37.177Z,18.05
2023-01-21T16:26:04.600Z,18.83
2023-01-21T16:28:49.685Z,15.23
2023-01-21T16:31:16.745Z,17.35
2023-01-21T16:33:43.918Z,14.07
2023-01-21T16:36:14.245Z,12.98
2023-01-21T16:38:44.659Z,14.70
2023-01-21T16:41:11.513Z,13.45
2023-01-21T16:43:51.339Z,16.10
2023-01-21T16:46:37.379Z,12.43
2023-01-21T16:49:14.753Z,14.95
2023-01-21T16:52:04.985Z,12.52
2023-01-21T16:55:25.974Z,12.25
2023-01-21T16:57:57.820Z,11.70
2023-01-21T17:00:32.197Z,11.55
2023-01-21T17:03:00.990Z,13.20
2023-01-21T17:05:34.740Z,15.98
2023-01-21T17:08:09.224Z,14.02
2023-01-21T17:10:55.981Z,13.63
2023-01-21T17:13:23.315Z,13.13
2023-01-21T17:15:58.133Z,14.45
2023-01-21T17:18:35.304Z,10.75
2023-01-21T17:21:09.279Z,12.20
2023-01-21T17:23:47.886Z,11.07
2023-01-21T17:26:25.137Z,9.38
2023-01-21T17:28:55.263Z,9.80
2023-01-21T17:31:30.961Z,9.23
2023-01-21T17:34:10.501Z,8.05
2023-01-21T17:36:39.491Z,7.45
2023-01-21T17:39:09.286Z,9.95
2023-01-21T17:41:41.094Z,7.35
2023-01-21T17:44:22.142Z,8.50
2023-01-21T17:46:53.232Z,8.55
2023-01-21T17:49:23.383Z,7.00
2023-01-21T17:51:53.842Z,9.13
2023-01-21T17:54:27.589Z,6.07
2023-01-21T17:56:58.009Z,5.85
2023-01-21T17:59:38.753Z,7.85
2023-01-21T18:02:10.799Z,6.80
2023-01-21T18:04:38.645Z,7.30
2023-01-21T18:07:26.746Z,4.63
2023-01-21T18:09:55.285Z,5.38
2023-01-21T18:12:22.312Z,4.43
2023-01-21T18:14:49.244Z,4.13
2023-01-21T18:17:23.775Z,6.03
2023-01-21T18:19:51.235Z,5.43
2023-01-21T18:22:31.874Z,4.35
2023-01-21T18:25:00.434Z,6.10
2023-01-21T18:27:27.498Z,5.85
2023-01-21T18:29:54.753Z,5.90
2023-01-21T18:32:21.811Z,4.05
2023-01-21T18:34:48.730Z,4.65
2023-01-21T18:37:18.781Z,6.07
2023-01-21T18:39:46.632Z,3.65
2023-01-21T18:42:17.062Z,4.82
2023-01-21T18:44:44.666Z,4.78
2023-01-21T18:47:14.355Z,5.50
2023-01-21T18:49:41.754Z,6.70
2023-01-21T18:52:18.548Z,6.88
2023-01-21T18:54:45.928Z,5.68
2023-01-21T18:57:18.871Z,5.75
2023-01-21T18:59:45.843Z,6.78
2023-01-21T19:02:19.991Z,5.20
2023-01-21T19:04:47.911Z,5.63
2023-01-21T19:07:17.494Z,4.40
2023-01-21T19:09:46.062Z,5.30
2023-01-21T19:12:20.945Z,4.28
2023-01-21T19:14:48.816Z,5.70
2023-01-21T19:17:33.201Z,4.70
2023-01-21T19:20:00.123Z,7.55
2023-01-21T19:22:27.044Z,4.80
2023-01-21T19:24:53.933Z,5.25
2023-01-21T19:27:29.969Z,4.85
2023-01-21T19:29:57.091Z,5.30
2023-01-21T19:32:23.958Z,6.32
2023-01-21T19:34:50.973Z,5.82
2023-01-21T19:37:23.403Z,4.93
2023-01-21T19:39:50.282Z,5.15
2023-01-21T19:42:17.955Z,4.82
2023-01-21T19:44:44.809Z,4.35
2023-01-21T19:47:28.944Z,4.90
2023-01-21T19:49:55.910Z,7.55
2023-01-21T19:52:22.821Z,7.38
2023-01-21T19:54:49.740Z,5.68
2023-01-21T19:57:17.464Z,5.47
2023-01-21T19:59:45.423Z,4.15
2023-01-21T20:02:12.792Z,3.40
2023-01-21T20:04:39.868Z,5.15
2023-01-21T20:07:07.245Z,4.60
2023-01-21T20:09:34.297Z,4.78
2023-01-21T20:12:03.445Z,4.07
2023-01-21T20:14:33.451Z,5.13
2023-01-21T20:17:02.944Z,5.10
2023-01-21T20:19:29.917Z,6.38
2023-01-21T20:22:02.515Z,4.57
2023-01-21T20:24:33.460Z,6.60
2023-01-21T20:27:06.455Z,4.80
2023-01-21T20:29:36.032Z,5.38
2023-01-21T20:32:05.066Z,6.65
2023-01-21T20:34:32.681Z,5.35
2023-01-21T20:37:00.103Z,4.40
2023-01-21T20:39:27.181Z,8.52
2023-01-21T20:41:54.086Z,6.30
2023-01-21T20:44:21.070Z,4.97
2023-01-21T20:46:48.628Z,5.72
2023-01-21T20:49:15.685Z,6.88
2023-01-21T20:51:42.751Z,7.03
2023-01-21T20:54:32.020Z,4.47
2023-01-21T20:56:58.900Z,5.68
2023-01-21T20:59:25.813Z,5.35
2023-01-21T21:01:55.351Z,4.72
2023-01-21T21:04:22.389Z,7.75
2023-01-21T21:06:49.418Z,5.45
2023-01-21T21:09:16.329Z,5.88
2023-01-21T21:11:43.254Z,4.65
2023-01-21T21:14:12.419Z,4.35
2023-01-21T21:16:39.453Z,4.82
2023-01-21T21:19:06.595Z,4.22
2023-01-21T21:21:33.892Z,5.20
2023-01-21T21:24:02.290Z,6.00
2023-01-21T21:26:29.558Z,5.70
2023-01-21T21:28:57.602Z,4.28
2023-01-21T21:31:30.154Z,7.18
2023-01-21T21:34:06.128Z,9.32
2023-01-21T21:36:33.417Z,5.70
2023-01-21T21:39:00.356Z,5.63
2023-01-21T21:41:51.355Z,7.10
2023-01-21T21:44:18.540Z,8.68
2023-01-21T21:47:04.211Z,8.23
2023-01-21T21:52:00.339Z,6.38
2023-01-21T21:54:27.493Z,5.63
2023-01-21T21:56:54.464Z,6.00
2023-01-21T21:59:21.518Z,5.68
2023-01-21T22:01:48.581Z,8.43
2023-01-21T22:04:15.885Z,6.68
2023-01-21T22:06:42.832Z,5.30
2023-01-21T22:09:10.654Z,6.78
2023-01-21T22:11:37.793Z,6.45
2023-01-21T22:14:04.959Z,6.28
2023-01-21T22:16:32.613Z,6.45
2023-01-21T22:19:01.082Z,6.72
2023-01-21T22:21:34.039Z,5.78
2023-01-21T22:24:02.697Z,6.07
2023-01-21T22:26:30.256Z,5.78
2023-01-21T22:28:57.974Z,6.55
2023-01-21T22:31:28.115Z,7.65
2023-01-21T22:33:56.686Z,7.22
2023-01-21T22:36:27.301Z,5.35
2023-01-21T22:38:54.765Z,4.88
2023-01-21T22:41:24.291Z,7.63
2023-01-21T22:43:52.933Z,6.43
2023-01-21T22:46:30.048Z,6.90
2023-01-21T22:48:58.301Z,7.30
2023-01-21T22:51:25.871Z,7.90
2023-01-21T22:53:56.267Z,6.95
2023-01-21T22:56:40.197Z,7.15
2023-01-21T22:59:13.220Z,7.28
2023-01-21T23:01:40.958Z,6.63
2023-01-21T23:04:08.880Z,7.40
2023-01-21T23:06:37.841Z,8.05
2023-01-21T23:09:08.044Z,6.10
2023-01-21T23:11:38.629Z,6.93
2023-01-21T23:14:06.840Z,5.85
2023-01-21T23:16:33.794Z,6.50
2023-01-21T23:19:00.821Z,7.28
2023-01-21T23:21:28.804Z,7.13
2023-01-21T23:23:55.760Z,6.40
2023-01-21T23:26:22.824Z,5.85
2023-01-21T23:28:55.997Z,7.13
2023-01-21T23:31:24.857Z,6.93
2023-01-21T23:33:54.388Z,5.35
2023-01-21T23:36:22.076Z,5.32
2023-01-21T23:38:49.109Z,6.03
2023-01-21T23:41:17.036Z,6.13
2023-01-21T23:43:44.129Z,7.30
2023-01-21T23:46:22.192Z,10.52
2023-01-21T23:48:49.248Z,6.70
2023-01-21T23:51:18.577Z,6.38
2023-01-21T23:53:49.052Z,6.25
2023-01-21T23:56:26.393Z,6.10
2023-01-21T23:58:54.442Z,7.13
